Portada
METAR-TAF:

METAR-TAF

Aeropuertos :

Aeropuerto Internacional de Pohnpei

Pohnpei, Micronesia

latitud: 06-59N, longitud: 158-12E, altitud: 2 m

Observación

El informe se hizo hace 13 minutos, a las 06:58 UTC
Viento 8 kt del este-noreste
Temperatura 29°C
Humedad 84%
Presión 1007 hPa
Visibilidad: 24.1 km
Cielo nuboso a una altura de 1800 ft
Cielo cubierto a una altura de 30000 ft

METAR: PTPN 190658Z 06008KT 15SM BKN018 OVC300 29/26 A2975

Hora: 18:11 (07:11 UTC)

Pronóstico

El informe se hizo hace 1 hora y 44 minutos, a las 05:27 UTC
Pronóstico válido del 19 a las 06 UTC al 20 a las 06 UTC
Viento 13 kt del este-noreste
Visibilidad: 10 km
Nubes dispersas a una altura de 1800 ft
Nubes dispersas a una altura de 5000 ft
Cielo nuboso a una altura de 14000 ft
chaparrones en las proximidades

TAF: PTPN 190527Z 1906/2006 07013KT P6SM VCSH SCT018 SCT050 BKN140

Observaciones y pronósticos meteorológicos de más de 4000 aeropuertos (mensajes METAR y TAF).

Los puntos amarillos y rojos representan las estaciones disponibles.

Ponga el ratón en el punto deseado para ver el nombre de la estación.

Haga clic para ver las observaciones y los pronósticos meteorológicos.

Para cambiar el mapa : haga clic en los botones verdes con una cruz de color negro para hacer un zoom, en el botón verde con un guión para alejar o en las flechas verdes para mapas adyacentes.


METAR-TAF: